Mapleton, Ohio
Current Conditions -  °F | °C
As of 10:51 PM on Friday 19 Dec 2014 (Local Time) from KCAK Reporting Station
Overcast Overcast  
Wind Chill: 23°   Ceiling: 2100
Heat Index: 28°   Visibility: 10mi
Dew Point: 19°   Wind: 5mph
Humidity: 69%   Direction: 20°NNE
Pressure: 30.26"   Gusts: NA
Location:  40.7679°N, 81.2601°W
Report Text: KCAK 200351Z 02004KT 10SM OVC021 M02/M07 A3026 RMK AO2 SLP262 T10221072
Loading
Personal Weather Stations






























Interactive Weather Map New forecast layout! Learn more

10-Day Weather Forecast

Advertisements
Track Severe Weather on mobile